sensor_id;sensor_type;location;lat;lon;timestamp;P1;P2;P0
55276;PMS5003;41136;51.478;-2.610;2023-03-01T00:01:34;1;1;
55276;PMS5003;41136;51.478;-2.610;2023-03-01T00:04:00;0;0;
55276;PMS5003;41136;51.478;-2.610;2023-03-01T00:06:25;1;1;
55276;PMS5003;41136;51.478;-2.610;2023-03-01T00:08:51;1;1;
55276;PMS5003;41136;51.478;-2.610;2023-03-01T00:11:17;1;1;
55276;PMS5003;41136;51.478;-2.610;2023-03-01T00:13:42;0;0;
55276;PMS5003;41136;51.478;-2.610;2023-03-01T00:16:08;0;0;
55276;PMS5003;41136;51.478;-2.610;2023-03-01T00:18:32;0;0;
55276;PMS5003;41136;51.478;-2.610;2023-03-01T00:20:58;1;1;
55276;PMS5003;41136;51.478;-2.610;2023-03-01T00:23:23;1;1;
55276;PMS5003;41136;51.478;-2.610;2023-03-01T00:25:49;2;0;
55276;PMS5003;41136;51.478;-2.610;2023-03-01T00:28:14;0;0;
55276;PMS5003;41136;51.478;-2.610;2023-03-01T00:30:40;0;0;
55276;PMS5003;41136;51.478;-2.610;2023-03-01T00:33:05;0;0;
55276;PMS5003;41136;51.478;-2.610;2023-03-01T00:35:31;1;1;
55276;PMS5003;41136;51.478;-2.610;2023-03-01T00:37:56;1;1;
55276;PMS5003;41136;51.478;-2.610;2023-03-01T00:40:21;0;0;
55276;PMS5003;41136;51.478;-2.610;2023-03-01T00:42:47;0;0;
55276;PMS5003;41136;51.478;-2.610;2023-03-01T00:45:12;0;0;
55276;PMS5003;41136;51.478;-2.610;2023-03-01T00:47:38;0;0;
55276;PMS5003;41136;51.478;-2.610;2023-03-01T00:50:03;0;0;
55276;PMS5003;41136;51.478;-2.610;2023-03-01T00:52:28;1;1;
55276;PMS5003;41136;51.478;-2.610;2023-03-01T00:54:54;0;0;
55276;PMS5003;41136;51.478;-2.610;2023-03-01T00:57:19;1;0;
55276;PMS5003;41136;51.478;-2.610;2023-03-01T00:59:45;1;1;
55276;PMS5003;41136;51.478;-2.610;2023-03-01T01:02:10;0;0;
55276;PMS5003;41136;51.478;-2.610;2023-03-01T01:04:36;1;1;
55276;PMS5003;41136;51.478;-2.610;2023-03-01T01:07:01;1;1;
55276;PMS5003;41136;51.478;-2.610;2023-03-01T01:09:27;1;1;
55276;PMS5003;41136;51.478;-2.610;2023-03-01T01:11:52;0;0;
55276;PMS5003;41136;51.478;-2.610;2023-03-01T01:14:18;0;0;
55276;PMS5003;41136;51.478;-2.610;2023-03-01T01:16:43;1;1;
55276;PMS5003;41136;51.478;-2.610;2023-03-01T01:19:09;1;1;
55276;PMS5003;41136;51.478;-2.610;2023-03-01T01:21:34;1;1;
55276;PMS5003;41136;51.478;-2.610;2023-03-01T01:23:59;1;1;
55276;PMS5003;41136;51.478;-2.610;2023-03-01T01:26:25;1;1;
55276;PMS5003;41136;51.478;-2.610;2023-03-01T01:28:50;1;1;
55276;PMS5003;41136;51.478;-2.610;2023-03-01T01:31:16;1;1;
55276;PMS5003;41136;51.478;-2.610;2023-03-01T01:33:41;1;1;
55276;PMS5003;41136;51.478;-2.610;2023-03-01T01:36:06;1;1;
55276;PMS5003;41136;51.478;-2.610;2023-03-01T01:38:32;1;1;
55276;PMS5003;41136;51.478;-2.610;2023-03-01T01:40:57;1;1;
55276;PMS5003;41136;51.478;-2.610;2023-03-01T01:43:24;1;1;
55276;PMS5003;41136;51.478;-2.610;2023-03-01T01:49:07;0;0;
55276;PMS5003;41136;51.478;-2.610;2023-03-01T01:51:32;2;0;
55276;PMS5003;41136;51.478;-2.610;2023-03-01T01:53:58;0;0;
55276;PMS5003;41136;51.478;-2.610;2023-03-01T01:56:23;0;0;
55276;PMS5003;41136;51.478;-2.610;2023-03-01T01:58:48;0;0;
55276;PMS5003;41136;51.478;-2.610;2023-03-01T02:01:14;0;0;
55276;PMS5003;41136;51.478;-2.610;2023-03-01T02:03:39;0;0;
55276;PMS5003;41136;51.478;-2.610;2023-03-01T02:06:06;0;0;
55276;PMS5003;41136;51.478;-2.610;2023-03-01T02:08:30;0;0;
55276;PMS5003;41136;51.478;-2.610;2023-03-01T02:10:55;0;0;
55276;PMS5003;41136;51.478;-2.610;2023-03-01T02:13:21;0;0;
55276;PMS5003;41136;51.478;-2.610;2023-03-01T02:15:46;0;0;
55276;PMS5003;41136;51.478;-2.610;2023-03-01T02:18:12;1;1;
55276;PMS5003;41136;51.478;-2.610;2023-03-01T02:20:39;0;0;
55276;PMS5003;41136;51.478;-2.610;2023-03-01T02:23:03;0;0;
55276;PMS5003;41136;51.478;-2.610;2023-03-01T02:25:31;0;0;
55276;PMS5003;41136;51.478;-2.610;2023-03-01T02:27:54;2;1;
55276;PMS5003;41136;51.478;-2.610;2023-03-01T02:30:19;0;0;
55276;PMS5003;41136;51.478;-2.610;2023-03-01T02:32:44;0;0;
55276;PMS5003;41136;51.478;-2.610;2023-03-01T02:35:10;1;1;
55276;PMS5003;41136;51.478;-2.610;2023-03-01T02:37:35;1;1;
55276;PMS5003;41136;51.478;-2.610;2023-03-01T02:40:02;2;1;
55276;PMS5003;41136;51.478;-2.610;2023-03-01T02:42:28;1;1;
55276;PMS5003;41136;51.478;-2.610;2023-03-01T02:44:52;0;0;
55276;PMS5003;41136;51.478;-2.610;2023-03-01T02:47:17;1;1;
55276;PMS5003;41136;51.478;-2.610;2023-03-01T02:49:42;2;2;
55276;PMS5003;41136;51.478;-2.610;2023-03-01T02:54:35;0;0;
55276;PMS5003;41136;51.478;-2.610;2023-03-01T02:56:59;1;1;
55276;PMS5003;41136;51.478;-2.610;2023-03-01T02:59:26;1;1;
55276;PMS5003;41136;51.478;-2.610;2023-03-01T03:01:50;0;0;
55276;PMS5003;41136;51.478;-2.610;2023-03-01T03:04:17;1;1;
55276;PMS5003;41136;51.478;-2.610;2023-03-01T03:06:41;4;2;
55276;PMS5003;41136;51.478;-2.610;2023-03-01T03:09:06;3;1;
55276;PMS5003;41136;51.478;-2.610;2023-03-01T03:11:31;2;1;
55276;PMS5003;41136;51.478;-2.610;2023-03-01T03:13:57;1;1;
55276;PMS5003;41136;51.478;-2.610;2023-03-01T03:16:23;1;1;
55276;PMS5003;41136;51.478;-2.610;2023-03-01T03:18:48;1;1;
55276;PMS5003;41136;51.478;-2.610;2023-03-01T03:21:13;1;1;
55276;PMS5003;41136;51.478;-2.610;2023-03-01T03:23:39;1;1;
55276;PMS5003;41136;51.478;-2.610;2023-03-01T03:26:05;1;1;
55276;PMS5003;41136;51.478;-2.610;2023-03-01T03:28:30;2;2;
55276;PMS5003;41136;51.478;-2.610;2023-03-01T03:30:55;1;1;
55276;PMS5003;41136;51.478;-2.610;2023-03-01T03:33:21;1;1;
55276;PMS5003;41136;51.478;-2.610;2023-03-01T03:35:47;3;0;
55276;PMS5003;41136;51.478;-2.610;2023-03-01T03:38:12;3;1;
55276;PMS5003;41136;51.478;-2.610;2023-03-01T03:40:38;1;1;
55276;PMS5003;41136;51.478;-2.610;2023-03-01T03:43:03;1;1;
55276;PMS5003;41136;51.478;-2.610;2023-03-01T03:45:28;0;0;
55276;PMS5003;41136;51.478;-2.610;2023-03-01T03:47:53;2;2;
55276;PMS5003;41136;51.478;-2.610;2023-03-01T03:50:19;2;2;
55276;PMS5003;41136;51.478;-2.610;2023-03-01T03:52:44;2;0;
55276;PMS5003;41136;51.478;-2.610;2023-03-01T03:55:10;0;0;
55276;PMS5003;41136;51.478;-2.610;2023-03-01T03:57:35;0;0;
55276;PMS5003;41136;51.478;-2.610;2023-03-01T04:00:00;1;1;
55276;PMS5003;41136;51.478;-2.610;2023-03-01T04:02:26;0;0;
55276;PMS5003;41136;51.478;-2.610;2023-03-01T04:04:51;1;1;
55276;PMS5003;41136;51.478;-2.610;2023-03-01T04:07:17;0;0;
55276;PMS5003;41136;51.478;-2.610;2023-03-01T04:09:43;2;1;
55276;PMS5003;41136;51.478;-2.610;2023-03-01T04:12:08;1;1;
55276;PMS5003;41136;51.478;-2.610;2023-03-01T04:14:33;3;1;
55276;PMS5003;41136;51.478;-2.610;2023-03-01T04:16:58;1;1;
55276;PMS5003;41136;51.478;-2.610;2023-03-01T04:19:24;1;1;
55276;PMS5003;41136;51.478;-2.610;2023-03-01T04:21:49;0;0;
55276;PMS5003;41136;51.478;-2.610;2023-03-01T04:24:15;0;0;
55276;PMS5003;41136;51.478;-2.610;2023-03-01T04:26:40;1;1;
55276;PMS5003;41136;51.478;-2.610;2023-03-01T04:29:06;1;1;
55276;PMS5003;41136;51.478;-2.610;2023-03-01T04:31:31;1;1;
55276;PMS5003;41136;51.478;-2.610;2023-03-01T04:33:56;1;1;
55276;PMS5003;41136;51.478;-2.610;2023-03-01T04:36:23;1;1;
55276;PMS5003;41136;51.478;-2.610;2023-03-01T04:38:47;1;1;
55276;PMS5003;41136;51.478;-2.610;2023-03-01T04:41:14;0;0;
55276;PMS5003;41136;51.478;-2.610;2023-03-01T04:43:38;3;1;
55276;PMS5003;41136;51.478;-2.610;2023-03-01T04:46:05;2;2;
55276;PMS5003;41136;51.478;-2.610;2023-03-01T04:48:29;1;1;
55276;PMS5003;41136;51.478;-2.610;2023-03-01T04:50:54;2;2;
55276;PMS5003;41136;51.478;-2.610;2023-03-01T04:53:20;3;3;
55276;PMS5003;41136;51.478;-2.610;2023-03-01T04:55:45;3;3;
55276;PMS5003;41136;51.478;-2.610;2023-03-01T04:58:11;4;4;
55276;PMS5003;41136;51.478;-2.610;2023-03-01T05:00:36;2;2;
55276;PMS5003;41136;51.478;-2.610;2023-03-01T05:03:02;3;3;
55276;PMS5003;41136;51.478;-2.610;2023-03-01T05:05:28;2;2;
55276;PMS5003;41136;51.478;-2.610;2023-03-01T05:07:53;5;3;
55276;PMS5003;41136;51.478;-2.610;2023-03-01T05:10:18;3;3;
55276;PMS5003;41136;51.478;-2.610;2023-03-01T05:12:43;2;2;
55276;PMS5003;41136;51.478;-2.610;2023-03-01T05:15:09;4;4;
55276;PMS5003;41136;51.478;-2.610;2023-03-01T05:17:34;4;2;
55276;PMS5003;41136;51.478;-2.610;2023-03-01T05:20:00;4;2;
55276;PMS5003;41136;51.478;-2.610;2023-03-01T05:22:25;3;3;
55276;PMS5003;41136;51.478;-2.610;2023-03-01T05:24:51;5;3;
55276;PMS5003;41136;51.478;-2.610;2023-03-01T05:27:16;4;4;
55276;PMS5003;41136;51.478;-2.610;2023-03-01T05:29:42;3;3;
55276;PMS5003;41136;51.478;-2.610;2023-03-01T05:32:07;5;5;
55276;PMS5003;41136;51.478;-2.610;2023-03-01T05:34:33;3;3;
55276;PMS5003;41136;51.478;-2.610;2023-03-01T05:36:58;4;4;
55276;PMS5003;41136;51.478;-2.610;2023-03-01T05:39:25;4;4;
55276;PMS5003;41136;51.478;-2.610;2023-03-01T05:41:51;3;3;
55276;PMS5003;41136;51.478;-2.610;2023-03-01T05:44:14;5;5;
55276;PMS5003;41136;51.478;-2.610;2023-03-01T05:46:40;4;4;
55276;PMS5003;41136;51.478;-2.610;2023-03-01T05:49:05;6;6;
55276;PMS5003;41136;51.478;-2.610;2023-03-01T05:51:30;4;4;
55276;PMS5003;41136;51.478;-2.610;2023-03-01T05:53:56;5;5;
55276;PMS5003;41136;51.478;-2.610;2023-03-01T05:56:21;4;3;
55276;PMS5003;41136;51.478;-2.610;2023-03-01T05:58:47;4;4;
55276;PMS5003;41136;51.478;-2.610;2023-03-01T06:01:12;4;4;
55276;PMS5003;41136;51.478;-2.610;2023-03-01T06:03:38;3;3;
55276;PMS5003;41136;51.478;-2.610;2023-03-01T06:06:03;5;5;
55276;PMS5003;41136;51.478;-2.610;2023-03-01T06:08:29;6;4;
55276;PMS5003;41136;51.478;-2.610;2023-03-01T06:10:54;7;5;
55276;PMS5003;41136;51.478;-2.610;2023-03-01T06:13:20;6;6;
55276;PMS5003;41136;51.478;-2.610;2023-03-01T06:15:45;7;4;
55276;PMS5003;41136;51.478;-2.610;2023-03-01T06:18:10;6;6;
55276;PMS5003;41136;51.478;-2.610;2023-03-01T06:20:36;6;6;
55276;PMS5003;41136;51.478;-2.610;2023-03-01T06:23:01;9;6;
55276;PMS5003;41136;51.478;-2.610;2023-03-01T06:25:28;7;5;
55276;PMS5003;41136;51.478;-2.610;2023-03-01T06:27:52;7;7;
55276;PMS5003;41136;51.478;-2.610;2023-03-01T06:30:19;7;7;
55276;PMS5003;41136;51.478;-2.610;2023-03-01T06:32:43;9;6;
55276;PMS5003;41136;51.478;-2.610;2023-03-01T06:35:09;10;7;
55276;PMS5003;41136;51.478;-2.610;2023-03-01T06:37:34;5;5;
55276;PMS5003;41136;51.478;-2.610;2023-03-01T06:40:00;7;7;
55276;PMS5003;41136;51.478;-2.610;2023-03-01T06:42:25;5;5;
55276;PMS5003;41136;51.478;-2.610;2023-03-01T06:44:51;5;5;
55276;PMS5003;41136;51.478;-2.610;2023-03-01T06:47:16;5;3;
55276;PMS5003;41136;51.478;-2.610;2023-03-01T06:49:42;4;4;
55276;PMS5003;41136;51.478;-2.610;2023-03-01T06:52:07;8;6;
55276;PMS5003;41136;51.478;-2.610;2023-03-01T06:54:32;8;6;
55276;PMS5003;41136;51.478;-2.610;2023-03-01T06:56:58;6;4;
55276;PMS5003;41136;51.478;-2.610;2023-03-01T06:59:23;5;5;
55276;PMS5003;41136;51.478;-2.610;2023-03-01T07:01:49;7;5;
55276;PMS5003;41136;51.478;-2.610;2023-03-01T07:04:14;5;5;
55276;PMS5003;41136;51.478;-2.610;2023-03-01T07:06:40;7;5;
55276;PMS5003;41136;51.478;-2.610;2023-03-01T07:09:05;4;4;
55276;PMS5003;41136;51.478;-2.610;2023-03-01T07:11:31;4;4;
55276;PMS5003;41136;51.478;-2.610;2023-03-01T07:13:56;4;4;
55276;PMS5003;41136;51.478;-2.610;2023-03-01T07:16:21;5;5;
55276;PMS5003;41136;51.478;-2.610;2023-03-01T07:18:47;7;5;
55276;PMS5003;41136;51.478;-2.610;2023-03-01T07:21:13;9;6;
55276;PMS5003;41136;51.478;-2.610;2023-03-01T07:23:38;5;5;
55276;PMS5003;41136;51.478;-2.610;2023-03-01T07:26:03;6;6;
55276;PMS5003;41136;51.478;-2.610;2023-03-01T07:28:28;5;5;
55276;PMS5003;41136;51.478;-2.610;2023-03-01T07:30:54;8;5;
55276;PMS5003;41136;51.478;-2.610;2023-03-01T07:33:19;2;2;
55276;PMS5003;41136;51.478;-2.610;2023-03-01T07:35:45;5;3;
55276;PMS5003;41136;51.478;-2.610;2023-03-01T07:38:10;7;5;
55276;PMS5003;41136;51.478;-2.610;2023-03-01T07:40:36;4;4;
55276;PMS5003;41136;51.478;-2.610;2023-03-01T07:43:01;2;2;
55276;PMS5003;41136;51.478;-2.610;2023-03-01T07:45:27;2;2;
55276;PMS5003;41136;51.478;-2.610;2023-03-01T07:47:52;4;3;
55276;PMS5003;41136;51.478;-2.610;2023-03-01T07:50:18;5;3;
55276;PMS5003;41136;51.478;-2.610;2023-03-01T07:52:44;5;5;
55276;PMS5003;41136;51.478;-2.610;2023-03-01T07:55:08;3;3;
55276;PMS5003;41136;51.478;-2.610;2023-03-01T07:57:34;4;4;
55276;PMS5003;41136;51.478;-2.610;2023-03-01T07:59:59;3;3;
55276;PMS5003;41136;51.478;-2.610;2023-03-01T08:02:25;3;3;
55276;PMS5003;41136;51.478;-2.610;2023-03-01T08:04:50;5;3;
55276;PMS5003;41136;51.478;-2.610;2023-03-01T08:07:16;3;3;
55276;PMS5003;41136;51.478;-2.610;2023-03-01T08:09:41;5;5;
55276;PMS5003;41136;51.478;-2.610;2023-03-01T08:12:07;5;4;
55276;PMS5003;41136;51.478;-2.610;2023-03-01T08:14:32;4;4;
55276;PMS5003;41136;51.478;-2.610;2023-03-01T08:16:57;2;2;
55276;PMS5003;41136;51.478;-2.610;2023-03-01T08:19:23;3;3;
55276;PMS5003;41136;51.478;-2.610;2023-03-01T08:21:48;4;2;
55276;PMS5003;41136;51.478;-2.610;2023-03-01T08:24:14;3;3;
55276;PMS5003;41136;51.478;-2.610;2023-03-01T08:26:39;3;3;
55276;PMS5003;41136;51.478;-2.610;2023-03-01T08:29:05;2;2;
55276;PMS5003;41136;51.478;-2.610;2023-03-01T08:31:31;4;3;
55276;PMS5003;41136;51.478;-2.610;2023-03-01T08:33:57;3;3;
55276;PMS5003;41136;51.478;-2.610;2023-03-01T08:36:22;2;2;
55276;PMS5003;41136;51.478;-2.610;2023-03-01T08:38:46;2;2;
55276;PMS5003;41136;51.478;-2.610;2023-03-01T08:41:12;3;3;
55276;PMS5003;41136;51.478;-2.610;2023-03-01T08:43:37;3;3;
55276;PMS5003;41136;51.478;-2.610;2023-03-01T08:46:03;4;4;
55276;PMS5003;41136;51.478;-2.610;2023-03-01T08:48:28;3;3;
55276;PMS5003;41136;51.478;-2.610;2023-03-01T08:50:54;6;3;
55276;PMS5003;41136;51.478;-2.610;2023-03-01T08:53:19;7;5;
55276;PMS5003;41136;51.478;-2.610;2023-03-01T08:55:45;7;5;
55276;PMS5003;41136;51.478;-2.610;2023-03-01T08:58:10;7;4;
55276;PMS5003;41136;51.478;-2.610;2023-03-01T09:00:35;7;6;
55276;PMS5003;41136;51.478;-2.610;2023-03-01T09:03:01;5;5;
55276;PMS5003;41136;51.478;-2.610;2023-03-01T09:05:26;6;5;
55276;PMS5003;41136;51.478;-2.610;2023-03-01T09:07:52;10;6;
55276;PMS5003;41136;51.478;-2.610;2023-03-01T09:10:17;5;5;
55276;PMS5003;41136;51.478;-2.610;2023-03-01T09:12:43;5;5;
55276;PMS5003;41136;51.478;-2.610;2023-03-01T09:15:09;6;6;
55276;PMS5003;41136;51.478;-2.610;2023-03-01T09:17:33;7;7;
55276;PMS5003;41136;51.478;-2.610;2023-03-01T09:20:04;7;5;
55276;PMS5003;41136;51.478;-2.610;2023-03-01T09:22:24;6;4;
55276;PMS5003;41136;51.478;-2.610;2023-03-01T09:24:50;6;4;
55276;PMS5003;41136;51.478;-2.610;2023-03-01T09:27:15;7;6;
55276;PMS5003;41136;51.478;-2.610;2023-03-01T09:29:41;6;6;
55276;PMS5003;41136;51.478;-2.610;2023-03-01T09:32:06;5;5;
55276;PMS5003;41136;51.478;-2.610;2023-03-01T09:34:31;6;4;
55276;PMS5003;41136;51.478;-2.610;2023-03-01T09:36:57;9;6;
55276;PMS5003;41136;51.478;-2.610;2023-03-01T09:39:22;5;5;
55276;PMS5003;41136;51.478;-2.610;2023-03-01T09:41:49;3;3;
55276;PMS5003;41136;51.478;-2.610;2023-03-01T09:44:16;6;6;
55276;PMS5003;41136;51.478;-2.610;2023-03-01T09:46:40;5;5;
55276;PMS5003;41136;51.478;-2.610;2023-03-01T09:49:04;4;4;
55276;PMS5003;41136;51.478;-2.610;2023-03-01T09:51:29;7;5;
55276;PMS5003;41136;51.478;-2.610;2023-03-01T09:53:54;6;5;
55276;PMS5003;41136;51.478;-2.610;2023-03-01T09:56:20;6;5;
55276;PMS5003;41136;51.478;-2.610;2023-03-01T09:58:47;6;6;
55276;PMS5003;41136;51.478;-2.610;2023-03-01T10:01:16;4;4;
55276;PMS5003;41136;51.478;-2.610;2023-03-01T10:03:37;5;5;
55276;PMS5003;41136;51.478;-2.610;2023-03-01T10:06:03;9;3;
55276;PMS5003;41136;51.478;-2.610;2023-03-01T10:08:29;5;4;
55276;PMS5003;41136;51.478;-2.610;2023-03-01T10:10:52;3;3;
55276;PMS5003;41136;51.478;-2.610;2023-03-01T10:13:19;5;5;
55276;PMS5003;41136;51.478;-2.610;2023-03-01T10:15:44;2;2;
55276;PMS5003;41136;51.478;-2.610;2023-03-01T10:18:09;3;3;
55276;PMS5003;41136;51.478;-2.610;2023-03-01T10:20:37;5;4;
55276;PMS5003;41136;51.478;-2.610;2023-03-01T10:22:59;3;2;
55276;PMS5003;41136;51.478;-2.610;2023-03-01T10:25:31;3;3;
55276;PMS5003;41136;51.478;-2.610;2023-03-01T10:27:52;4;2;
55276;PMS5003;41136;51.478;-2.610;2023-03-01T10:30:17;1;1;
55276;PMS5003;41136;51.478;-2.610;2023-03-01T10:32:41;2;2;
55276;PMS5003;41136;51.478;-2.610;2023-03-01T10:37:32;3;2;
55276;PMS5003;41136;51.478;-2.610;2023-03-01T10:39:58;3;3;
55276;PMS5003;41136;51.478;-2.610;2023-03-01T10:42:26;4;4;
55276;PMS5003;41136;51.478;-2.610;2023-03-01T10:44:48;4;3;
55276;PMS5003;41136;51.478;-2.610;2023-03-01T10:47:16;1;1;
55276;PMS5003;41136;51.478;-2.610;2023-03-01T10:49:39;5;2;
55276;PMS5003;41136;51.478;-2.610;2023-03-01T10:54:31;1;1;
55276;PMS5003;41136;51.478;-2.610;2023-03-01T10:56:56;2;2;
55276;PMS5003;41136;51.478;-2.610;2023-03-01T10:59:25;4;2;
55276;PMS5003;41136;51.478;-2.610;2023-03-01T11:01:46;3;2;
55276;PMS5003;41136;51.478;-2.610;2023-03-01T11:04:12;4;4;
55276;PMS5003;41136;51.478;-2.610;2023-03-01T11:06:38;4;4;
55276;PMS5003;41136;51.478;-2.610;2023-03-01T11:11:30;5;5;
55276;PMS5003;41136;51.478;-2.610;2023-03-01T11:13:55;3;3;
55276;PMS5003;41136;51.478;-2.610;2023-03-01T11:16:23;5;4;
55276;PMS5003;41136;51.478;-2.610;2023-03-01T11:18:44;6;4;
55276;PMS5003;41136;51.478;-2.610;2023-03-01T11:21:10;6;5;
55276;PMS5003;41136;51.478;-2.610;2023-03-01T11:23:35;6;4;
55276;PMS5003;41136;51.478;-2.610;2023-03-01T11:26:02;5;5;
55276;PMS5003;41136;51.478;-2.610;2023-03-01T11:28:27;4;4;
55276;PMS5003;41136;51.478;-2.610;2023-03-01T11:30:53;5;4;
55276;PMS5003;41136;51.478;-2.610;2023-03-01T11:33:18;7;5;
55276;PMS5003;41136;51.478;-2.610;2023-03-01T11:35:44;3;3;
55276;PMS5003;41136;51.478;-2.610;2023-03-01T11:38:14;3;3;
55276;PMS5003;41136;51.478;-2.610;2023-03-01T11:40:34;6;5;
55276;PMS5003;41136;51.478;-2.610;2023-03-01T11:43:01;3;3;
55276;PMS5003;41136;51.478;-2.610;2023-03-01T11:45:24;5;5;
55276;PMS5003;41136;51.478;-2.610;2023-03-01T11:47:54;5;5;
55276;PMS5003;41136;51.478;-2.610;2023-03-01T11:50:18;4;4;
55276;PMS5003;41136;51.478;-2.610;2023-03-01T11:52:43;5;5;
55276;PMS5003;41136;51.478;-2.610;2023-03-01T11:55:12;3;3;
55276;PMS5003;41136;51.478;-2.610;2023-03-01T11:57:36;4;3;
55276;PMS5003;41136;51.478;-2.610;2023-03-01T11:59:59;3;3;
55276;PMS5003;41136;51.478;-2.610;2023-03-01T12:02:27;6;3;
55276;PMS5003;41136;51.478;-2.610;2023-03-01T12:04:53;7;6;
55276;PMS5003;41136;51.478;-2.610;2023-03-01T12:07:14;5;4;
55276;PMS5003;41136;51.478;-2.610;2023-03-01T12:09:43;5;4;
55276;PMS5003;41136;51.478;-2.610;2023-03-01T12:12:09;6;4;
55276;PMS5003;41136;51.478;-2.610;2023-03-01T12:14:34;6;6;
55276;PMS5003;41136;51.478;-2.610;2023-03-01T12:17:00;6;5;
55276;PMS5003;41136;51.478;-2.610;2023-03-01T12:19:24;5;4;
55276;PMS5003;41136;51.478;-2.610;2023-03-01T12:21:50;5;5;
55276;PMS5003;41136;51.478;-2.610;2023-03-01T12:24:18;7;5;
55276;PMS5003;41136;51.478;-2.610;2023-03-01T12:26:38;6;6;
55276;PMS5003;41136;51.478;-2.610;2023-03-01T12:29:08;5;5;
55276;PMS5003;41136;51.478;-2.610;2023-03-01T12:31:33;4;4;
55276;PMS5003;41136;51.478;-2.610;2023-03-01T12:33:54;7;7;
55276;PMS5003;41136;51.478;-2.610;2023-03-01T12:38:49;7;7;
55276;PMS5003;41136;51.478;-2.610;2023-03-01T12:43:37;7;6;
55276;PMS5003;41136;51.478;-2.610;2023-03-01T12:46:06;7;7;
55276;PMS5003;41136;51.478;-2.610;2023-03-01T12:48:29;8;8;
55276;PMS5003;41136;51.478;-2.610;2023-03-01T12:50:51;9;6;
55276;PMS5003;41136;51.478;-2.610;2023-03-01T12:53:20;7;7;
55276;PMS5003;41136;51.478;-2.610;2023-03-01T12:55:41;9;8;
55276;PMS5003;41136;51.478;-2.610;2023-03-01T12:58:07;11;8;
55276;PMS5003;41136;51.478;-2.610;2023-03-01T13:00:32;12;10;
55276;PMS5003;41136;51.478;-2.610;2023-03-01T13:02:58;7;7;
55276;PMS5003;41136;51.478;-2.610;2023-03-01T13:05:24;7;6;
55276;PMS5003;41136;51.478;-2.610;2023-03-01T13:07:50;9;8;
55276;PMS5003;41136;51.478;-2.610;2023-03-01T13:10:17;9;8;
55276;PMS5003;41136;51.478;-2.610;2023-03-01T13:12:43;8;8;
55276;PMS5003;41136;51.478;-2.610;2023-03-01T13:17:30;9;9;
55276;PMS5003;41136;51.478;-2.610;2023-03-01T13:19:56;12;10;
55276;PMS5003;41136;51.478;-2.610;2023-03-01T13:24:45;8;8;
55276;PMS5003;41136;51.478;-2.610;2023-03-01T13:27:18;9;9;
55276;PMS5003;41136;51.478;-2.610;2023-03-01T13:32:01;7;7;
55276;PMS5003;41136;51.478;-2.610;2023-03-01T13:36:52;9;9;
55276;PMS5003;41136;51.478;-2.610;2023-03-01T13:44:11;6;6;
55276;PMS5003;41136;51.478;-2.610;2023-03-01T13:46:33;11;7;
55276;PMS5003;41136;51.478;-2.610;2023-03-01T13:48:59;9;7;
55276;PMS5003;41136;51.478;-2.610;2023-03-01T13:51:25;8;8;
55276;PMS5003;41136;51.478;-2.610;2023-03-01T13:53:49;9;8;
55276;PMS5003;41136;51.478;-2.610;2023-03-01T13:56:15;8;8;
55276;PMS5003;41136;51.478;-2.610;2023-03-01T13:58:44;10;9;
55276;PMS5003;41136;51.478;-2.610;2023-03-01T14:01:06;8;8;
55276;PMS5003;41136;51.478;-2.610;2023-03-01T14:03:31;6;5;
55276;PMS5003;41136;51.478;-2.610;2023-03-01T14:05:58;6;5;
55276;PMS5003;41136;51.478;-2.610;2023-03-01T14:08:22;8;7;
55276;PMS5003;41136;51.478;-2.610;2023-03-01T14:10:50;8;7;
55276;PMS5003;41136;51.478;-2.610;2023-03-01T14:13:19;9;7;
55276;PMS5003;41136;51.478;-2.610;2023-03-01T14:15:38;8;6;
55276;PMS5003;41136;51.478;-2.610;2023-03-01T14:18:03;8;7;
55276;PMS5003;41136;51.478;-2.610;2023-03-01T14:20:28;9;5;
55276;PMS5003;41136;51.478;-2.610;2023-03-01T14:22:54;6;6;
55276;PMS5003;41136;51.478;-2.610;2023-03-01T14:25:20;7;5;
55276;PMS5003;41136;51.478;-2.610;2023-03-01T14:27:44;4;4;
55276;PMS5003;41136;51.478;-2.610;2023-03-01T14:30:11;6;6;
55276;PMS5003;41136;51.478;-2.610;2023-03-01T14:32:35;10;8;
55276;PMS5003;41136;51.478;-2.610;2023-03-01T14:35:00;7;6;
55276;PMS5003;41136;51.478;-2.610;2023-03-01T14:37:26;10;7;
55276;PMS5003;41136;51.478;-2.610;2023-03-01T14:39:51;9;8;
55276;PMS5003;41136;51.478;-2.610;2023-03-01T14:42:16;10;8;
55276;PMS5003;41136;51.478;-2.610;2023-03-01T14:44:42;8;8;
55276;PMS5003;41136;51.478;-2.610;2023-03-01T14:47:10;7;7;
55276;PMS5003;41136;51.478;-2.610;2023-03-01T14:49:33;8;5;
55276;PMS5003;41136;51.478;-2.610;2023-03-01T14:51:59;7;7;
55276;PMS5003;41136;51.478;-2.610;2023-03-01T14:54:24;8;7;
55276;PMS5003;41136;51.478;-2.610;2023-03-01T14:56:49;6;6;
55276;PMS5003;41136;51.478;-2.610;2023-03-01T14:59:14;7;7;
55276;PMS5003;41136;51.478;-2.610;2023-03-01T15:01:40;6;5;
55276;PMS5003;41136;51.478;-2.610;2023-03-01T15:04:05;6;5;
55276;PMS5003;41136;51.478;-2.610;2023-03-01T15:06:30;7;6;
55276;PMS5003;41136;51.478;-2.610;2023-03-01T15:08:56;9;8;
55276;PMS5003;41136;51.478;-2.610;2023-03-01T15:11:22;6;6;
55276;PMS5003;41136;51.478;-2.610;2023-03-01T15:13:46;8;6;
55276;PMS5003;41136;51.478;-2.610;2023-03-01T15:16:12;7;6;
55276;PMS5003;41136;51.478;-2.610;2023-03-01T15:18:38;9;8;
55276;PMS5003;41136;51.478;-2.610;2023-03-01T15:21:07;9;8;
55276;PMS5003;41136;51.478;-2.610;2023-03-01T15:23:28;6;6;
55276;PMS5003;41136;51.478;-2.610;2023-03-01T15:25:54;5;5;
55276;PMS5003;41136;51.478;-2.610;2023-03-01T15:28:19;5;5;
55276;PMS5003;41136;51.478;-2.610;2023-03-01T15:30:44;8;7;
55276;PMS5003;41136;51.478;-2.610;2023-03-01T15:35:40;6;6;
55276;PMS5003;41136;51.478;-2.610;2023-03-01T15:38:00;8;6;
55276;PMS5003;41136;51.478;-2.610;2023-03-01T15:40:27;6;6;
55276;PMS5003;41136;51.478;-2.610;2023-03-01T15:42:51;7;6;
55276;PMS5003;41136;51.478;-2.610;2023-03-01T15:45:22;4;4;
55276;PMS5003;41136;51.478;-2.610;2023-03-01T15:47:46;5;5;
55276;PMS5003;41136;51.478;-2.610;2023-03-01T15:50:11;6;6;
55276;PMS5003;41136;51.478;-2.610;2023-03-01T15:52:34;6;6;
55276;PMS5003;41136;51.478;-2.610;2023-03-01T15:54:59;5;5;
55276;PMS5003;41136;51.478;-2.610;2023-03-01T15:57:23;4;4;
55276;PMS5003;41136;51.478;-2.610;2023-03-01T15:59:49;10;10;
55276;PMS5003;41136;51.478;-2.610;2023-03-01T16:02:14;7;7;
55276;PMS5003;41136;51.478;-2.610;2023-03-01T16:04:40;10;10;
55276;PMS5003;41136;51.478;-2.610;2023-03-01T16:07:06;9;8;
55276;PMS5003;41136;51.478;-2.610;2023-03-01T16:09:31;9;8;
55276;PMS5003;41136;51.478;-2.610;2023-03-01T16:11:56;7;7;
55276;PMS5003;41136;51.478;-2.610;2023-03-01T16:14:22;10;10;
55276;PMS5003;41136;51.478;-2.610;2023-03-01T16:16:47;9;9;
55276;PMS5003;41136;51.478;-2.610;2023-03-01T16:19:13;9;7;
55276;PMS5003;41136;51.478;-2.610;2023-03-01T16:21:38;10;10;
55276;PMS5003;41136;51.478;-2.610;2023-03-01T16:24:04;14;12;
55276;PMS5003;41136;51.478;-2.610;2023-03-01T16:26:29;7;6;
55276;PMS5003;41136;51.478;-2.610;2023-03-01T16:28:55;10;8;
55276;PMS5003;41136;51.478;-2.610;2023-03-01T16:31:20;11;10;
55276;PMS5003;41136;51.478;-2.610;2023-03-01T16:33:45;10;9;
55276;PMS5003;41136;51.478;-2.610;2023-03-01T16:36:11;20;15;
55276;PMS5003;41136;51.478;-2.610;2023-03-01T16:38:36;12;11;
55276;PMS5003;41136;51.478;-2.610;2023-03-01T16:41:01;11;9;
55276;PMS5003;41136;51.478;-2.610;2023-03-01T16:43:27;9;9;
55276;PMS5003;41136;51.478;-2.610;2023-03-01T16:45:52;8;8;
55276;PMS5003;41136;51.478;-2.610;2023-03-01T16:48:17;13;12;
55276;PMS5003;41136;51.478;-2.610;2023-03-01T16:50:43;14;12;
55276;PMS5003;41136;51.478;-2.610;2023-03-01T16:53:08;19;16;
55276;PMS5003;41136;51.478;-2.610;2023-03-01T16:55:34;16;16;